createdAt,value
2023-10-18T00:00:27.005Z,100.00
2023-10-18T00:02:56.209Z,100.00
2023-10-18T00:05:26.996Z,100.00
2023-10-18T00:07:58.582Z,100.00
2023-10-18T00:10:28.591Z,100.00
2023-10-18T00:13:00.180Z,100.00
2023-10-18T00:15:28.740Z,100.00
2023-10-18T00:17:57.907Z,100.00
2023-10-18T00:20:27.163Z,100.00
2023-10-18T00:22:58.178Z,100.00
2023-10-18T00:25:26.755Z,100.00
2023-10-18T00:27:55.333Z,100.00
2023-10-18T00:30:24.007Z,100.00
2023-10-18T00:32:52.565Z,100.00
2023-10-18T00:35:22.630Z,100.00
2023-10-18T00:37:56.749Z,100.00
2023-10-18T00:40:36.280Z,100.00
2023-10-18T00:43:09.131Z,100.00
2023-10-18T00:45:45.776Z,100.00
2023-10-18T00:48:14.814Z,100.00
2023-10-18T00:50:46.709Z,100.00
2023-10-18T00:53:21.496Z,100.00
2023-10-18T00:55:54.453Z,100.00
2023-10-18T00:58:24.764Z,100.00
2023-10-18T01:00:54.097Z,100.00
2023-10-18T01:03:32.324Z,100.00
2023-10-18T01:06:06.324Z,100.00
2023-10-18T01:08:35.463Z,100.00
2023-10-18T01:11:08.774Z,100.00
2023-10-18T01:13:40.301Z,100.00
2023-10-18T01:16:12.338Z,100.00
2023-10-18T01:18:43.963Z,100.00
2023-10-18T01:21:17.343Z,100.00
2023-10-18T01:23:50.968Z,100.00
2023-10-18T01:26:22.523Z,100.00
2023-10-18T01:28:53.402Z,100.00
2023-10-18T01:31:22.486Z,100.00
2023-10-18T01:33:52.146Z,100.00
2023-10-18T01:36:23.312Z,100.00
2023-10-18T01:38:54.535Z,100.00
2023-10-18T01:41:28.927Z,100.00
2023-10-18T01:44:00.394Z,100.00
2023-10-18T01:46:29.775Z,100.00
2023-10-18T01:48:58.899Z,100.00
2023-10-18T01:51:28.021Z,100.00
2023-10-18T01:53:57.492Z,100.00
2023-10-18T01:56:27.417Z,100.00
2023-10-18T01:58:55.927Z,100.00
2023-10-18T02:01:24.479Z,100.00
2023-10-18T02:03:53.371Z,100.00
2023-10-18T02:06:22.556Z,100.00
2023-10-18T02:08:51.665Z,100.00
2023-10-18T02:11:20.572Z,100.00
2023-10-18T02:13:50.385Z,100.00
2023-10-18T02:16:21.394Z,100.00
2023-10-18T02:18:51.718Z,100.00
2023-10-18T02:21:23.072Z,100.00
2023-10-18T02:23:53.926Z,100.00
2023-10-18T02:26:34.997Z,100.00
2023-10-18T02:29:13.646Z,100.00
2023-10-18T02:31:41.499Z,100.00
2023-10-18T02:34:18.944Z,100.00
2023-10-18T02:36:57.106Z,100.00
2023-10-18T02:39:29.550Z,100.00
2023-10-18T02:41:58.680Z,100.00
2023-10-18T02:44:30.605Z,100.00
2023-10-18T02:47:11.708Z,100.00
2023-10-18T02:49:40.052Z,100.00
2023-10-18T02:52:11.461Z,100.00
2023-10-18T02:54:41.316Z,100.00
2023-10-18T02:57:10.883Z,100.00
2023-10-18T02:59:42.240Z,100.00
2023-10-18T03:02:15.035Z,100.00
2023-10-18T03:04:44.877Z,100.00
2023-10-18T03:07:15.739Z,100.00
2023-10-18T03:09:50.953Z,100.00
2023-10-18T03:12:19.655Z,100.00
2023-10-18T03:14:58.686Z,100.00
2023-10-18T03:17:30.471Z,100.00
2023-10-18T03:19:59.264Z,100.00
2023-10-18T03:22:30.900Z,100.00
2023-10-18T03:25:01.510Z,100.00
2023-10-18T03:27:33.613Z,100.00
2023-10-18T03:30:14.172Z,100.00
2023-10-18T03:32:42.669Z,100.00
2023-10-18T03:35:14.483Z,100.00
2023-10-18T03:37:44.385Z,100.00
2023-10-18T03:40:20.584Z,100.00
2023-10-18T03:42:51.955Z,100.00
2023-10-18T03:45:23.140Z,100.00
2023-10-18T03:48:00.128Z,100.00
2023-10-18T03:50:37.159Z,100.00
2023-10-18T03:53:08.381Z,100.00
2023-10-18T03:55:43.957Z,100.00
2023-10-18T03:58:18.464Z,100.00
2023-10-18T04:00:49.485Z,100.00
2023-10-18T04:03:22.087Z,100.00
2023-10-18T04:05:53.633Z,100.00
2023-10-18T04:08:23.902Z,100.00
2023-10-18T04:11:00.056Z,100.00
2023-10-18T04:13:32.553Z,100.00
2023-10-18T04:16:11.597Z,100.00
2023-10-18T04:18:43.436Z,100.00
2023-10-18T04:21:16.155Z,100.00
2023-10-18T04:23:47.785Z,100.00
2023-10-18T04:26:20.352Z,100.00
2023-10-18T04:28:50.277Z,100.00
2023-10-18T04:31:23.280Z,100.00
2023-10-18T04:33:52.077Z,100.00
2023-10-18T04:36:22.141Z,100.00
2023-10-18T04:38:52.920Z,100.00
2023-10-18T04:41:33.050Z,100.00
2023-10-18T04:44:05.962Z,100.00
2023-10-18T04:46:38.140Z,100.00
2023-10-18T04:49:24.695Z,100.00
2023-10-18T04:51:55.653Z,100.00
2023-10-18T04:54:37.079Z,100.00
2023-10-18T04:57:08.515Z,100.00
2023-10-18T04:59:46.103Z,100.00
2023-10-18T05:02:18.828Z,100.00
2023-10-18T05:04:48.921Z,100.00
2023-10-18T05:07:17.400Z,100.00
2023-10-18T05:09:46.921Z,100.00
2023-10-18T05:12:29.945Z,100.00
2023-10-18T05:15:19.122Z,100.00
2023-10-18T05:17:49.362Z,100.00
2023-10-18T05:20:43.217Z,100.00
2023-10-18T05:23:11.891Z,100.00
2023-10-18T05:25:47.027Z,100.00
2023-10-18T05:28:19.052Z,100.00
2023-10-18T05:31:25.047Z,100.00
2023-10-18T05:33:59.268Z,100.00
2023-10-18T05:36:56.224Z,100.00
2023-10-18T05:39:30.240Z,100.00
2023-10-18T05:42:15.030Z,100.00
2023-10-18T05:44:43.948Z,100.00
2023-10-18T05:47:12.530Z,100.00
2023-10-18T05:49:43.416Z,100.00
2023-10-18T05:52:37.874Z,100.00
2023-10-18T05:55:13.170Z,100.00
2023-10-18T05:57:43.439Z,100.00
2023-10-18T06:00:19.271Z,100.00
2023-10-18T06:02:47.851Z,100.00
2023-10-18T06:05:17.676Z,100.00
2023-10-18T06:07:47.263Z,100.00
2023-10-18T06:10:18.701Z,100.00
2023-10-18T06:12:50.054Z,100.00
2023-10-18T06:15:31.623Z,100.00
2023-10-18T06:18:01.735Z,100.00
2023-10-18T06:20:32.056Z,100.00
2023-10-18T06:23:10.510Z,100.00
2023-10-18T06:25:46.106Z,100.00
2023-10-18T06:28:22.124Z,100.00
2023-10-18T06:30:53.667Z,100.00
2023-10-18T06:33:23.059Z,100.00
2023-10-18T06:35:56.162Z,100.00
2023-10-18T06:38:26.139Z,100.00
2023-10-18T06:41:07.042Z,100.00
2023-10-18T06:43:37.674Z,100.00
2023-10-18T06:46:10.320Z,100.00
2023-10-18T06:48:39.413Z,100.00
2023-10-18T06:51:18.679Z,100.00
2023-10-18T06:53:55.704Z,100.00
2023-10-18T06:56:24.628Z,100.00
2023-10-18T06:58:53.185Z,100.00
2023-10-18T07:01:31.832Z,100.00
2023-10-18T07:04:01.806Z,100.00
2023-10-18T07:06:36.871Z,100.00
2023-10-18T07:09:17.588Z,100.00
2023-10-18T07:11:51.864Z,100.00
2023-10-18T07:14:21.397Z,100.00
2023-10-18T07:16:50.967Z,100.00
2023-10-18T07:19:28.752Z,100.00
2023-10-18T07:21:59.900Z,100.00
2023-10-18T07:24:35.849Z,100.00
2023-10-18T07:27:09.977Z,100.00
2023-10-18T07:29:38.682Z,100.00
2023-10-18T07:32:14.431Z,100.00
2023-10-18T07:34:44.212Z,100.00
2023-10-18T07:37:24.326Z,100.00
2023-10-18T07:39:59.383Z,100.00
2023-10-18T07:42:36.137Z,100.00
2023-10-18T07:45:05.878Z,100.00
2023-10-18T07:47:39.358Z,100.00
2023-10-18T07:50:30.853Z,100.00
2023-10-18T07:53:01.527Z,100.00
2023-10-18T07:55:36.085Z,100.00
2023-10-18T07:58:08.338Z,100.00
2023-10-18T08:00:36.827Z,100.00
2023-10-18T08:03:07.151Z,100.00
2023-10-18T08:05:47.825Z,100.00
2023-10-18T08:08:18.039Z,100.00
2023-10-18T08:10:46.815Z,100.00
2023-10-18T08:13:17.908Z,100.00
2023-10-18T08:15:52.589Z,100.00
2023-10-18T08:18:23.329Z,100.00
2023-10-18T08:21:01.125Z,100.00
2023-10-18T08:23:40.451Z,100.00
2023-10-18T08:26:08.857Z,100.00
2023-10-18T08:28:43.815Z,100.00
2023-10-18T08:31:16.492Z,100.00
2023-10-18T08:33:47.061Z,100.00
2023-10-18T08:36:16.148Z,100.00
2023-10-18T08:38:46.199Z,100.00
2023-10-18T08:41:17.426Z,100.00
2023-10-18T08:44:01.381Z,100.00
2023-10-18T08:46:29.794Z,99.77
2023-10-18T08:48:59.064Z,93.05
2023-10-18T08:51:29.825Z,88.75
2023-10-18T08:54:02.424Z,92.30
2023-10-18T08:56:34.529Z,90.57
2023-10-18T08:59:12.604Z,90.62
2023-10-18T09:02:02.372Z,92.29
2023-10-18T09:04:31.242Z,93.40
2023-10-18T09:07:02.339Z,93.13
2023-10-18T09:09:36.647Z,92.84
2023-10-18T09:12:15.995Z,94.65
2023-10-18T09:14:51.961Z,93.60
2023-10-18T09:17:24.306Z,94.35
2023-10-18T09:19:57.968Z,99.12
2023-10-18T09:22:26.427Z,97.01
2023-10-18T09:24:56.905Z,95.48
2023-10-18T09:27:28.496Z,92.69
2023-10-18T09:29:56.827Z,94.52
2023-10-18T09:32:34.641Z,91.98
2023-10-18T09:35:09.270Z,92.32
2023-10-18T09:37:41.187Z,92.29
2023-10-18T09:40:14.208Z,89.69
2023-10-18T09:42:45.352Z,93.58
2023-10-18T09:45:15.306Z,88.13
2023-10-18T09:47:44.028Z,87.59
2023-10-18T09:50:24.520Z,88.96
2023-10-18T09:52:59.078Z,92.08
2023-10-18T09:55:30.265Z,96.08
2023-10-18T09:58:04.291Z,97.09
2023-10-18T10:00:35.346Z,99.79
2023-10-18T10:03:10.127Z,97.58
2023-10-18T10:05:44.351Z,94.45
2023-10-18T10:08:14.146Z,94.17
2023-10-18T10:10:47.220Z,95.48
2023-10-18T10:13:29.279Z,93.61
2023-10-18T10:16:04.453Z,92.76
2023-10-18T10:18:36.716Z,94.79
2023-10-18T10:21:09.669Z,97.08
2023-10-18T10:23:40.254Z,95.61
2023-10-18T10:29:06.870Z,95.14
2023-10-18T10:31:57.829Z,94.62
2023-10-18T10:34:28.957Z,95.80
2023-10-18T10:37:09.157Z,97.85
2023-10-18T10:39:45.508Z,97.40
2023-10-18T10:42:43.157Z,97.30
2023-10-18T10:45:25.187Z,97.00
2023-10-18T10:47:53.777Z,95.89
2023-10-18T10:50:44.376Z,98.53
2023-10-18T10:53:12.984Z,96.86
2023-10-18T10:55:41.795Z,96.59
2023-10-18T10:58:18.574Z,96.90
2023-10-18T11:01:06.191Z,100.00
2023-10-18T11:03:55.461Z,99.64
2023-10-18T11:06:24.945Z,99.86
2023-10-18T11:08:55.040Z,98.39
2023-10-18T11:11:24.234Z,98.34
2023-10-18T11:13:54.490Z,100.00
2023-10-18T11:16:23.378Z,100.00
2023-10-18T11:18:54.263Z,100.00
2023-10-18T11:21:25.940Z,100.00
2023-10-18T11:23:58.624Z,100.00
2023-10-18T11:26:28.700Z,99.96
2023-10-18T11:29:00.571Z,100.00
2023-10-18T11:31:29.946Z,99.72
2023-10-18T11:34:07.287Z,100.00
2023-10-18T11:36:36.780Z,100.00
2023-10-18T11:39:20.405Z,99.65
2023-10-18T11:41:54.433Z,99.07
2023-10-18T11:44:32.928Z,98.43
2023-10-18T11:47:20.167Z,99.84
2023-10-18T11:49:54.470Z,96.50
2023-10-18T11:52:24.401Z,93.53
2023-10-18T11:54:54.461Z,95.45
2023-10-18T11:57:27.870Z,97.70
2023-10-18T12:00:03.819Z,100.00
2023-10-18T12:02:33.863Z,99.48
2023-10-18T12:05:06.842Z,98.19
2023-10-18T12:07:37.693Z,98.64
2023-10-18T12:10:16.955Z,98.38
2023-10-18T12:12:45.453Z,94.93
2023-10-18T12:15:17.014Z,95.82
2023-10-18T12:17:47.415Z,95.80
2023-10-18T12:20:17.032Z,96.06
2023-10-18T12:22:45.427Z,97.49
2023-10-18T12:25:16.914Z,99.28
2023-10-18T12:27:53.295Z,97.08
2023-10-18T12:30:33.706Z,97.85
2023-10-18T12:33:07.399Z,96.99
2023-10-18T12:35:38.918Z,95.60
2023-10-18T12:38:15.039Z,92.99
2023-10-18T12:40:56.175Z,95.50
2023-10-18T12:43:25.805Z,94.85
2023-10-18T12:45:56.651Z,96.68
2023-10-18T12:48:25.050Z,98.00
2023-10-18T12:50:54.145Z,97.32
2023-10-18T12:53:36.821Z,97.05
2023-10-18T12:56:32.172Z,99.99
2023-10-18T12:59:13.276Z,100.00
2023-10-18T13:01:48.270Z,99.55
2023-10-18T13:04:23.433Z,99.91
2023-10-18T13:06:51.873Z,100.00
2023-10-18T13:09:22.316Z,100.00
2023-10-18T13:12:09.474Z,100.00
2023-10-18T13:14:37.158Z,100.00
2023-10-18T13:17:12.309Z,100.00
2023-10-18T13:19:43.240Z,100.00
2023-10-18T13:22:18.870Z,100.00
2023-10-18T13:24:47.221Z,100.00
2023-10-18T13:27:19.890Z,100.00
2023-10-18T13:30:02.074Z,100.00
2023-10-18T13:32:34.203Z,100.00
2023-10-18T13:35:14.009Z,100.00
2023-10-18T13:37:43.228Z,100.00
2023-10-18T13:40:20.209Z,98.45
2023-10-18T13:42:51.071Z,98.69
2023-10-18T13:45:19.423Z,96.96
2023-10-18T13:47:49.301Z,97.25
2023-10-18T13:50:18.954Z,95.49
2023-10-18T13:52:49.120Z,97.08
2023-10-18T13:55:19.538Z,100.00
2023-10-18T13:57:48.150Z,100.00
2023-10-18T14:00:19.850Z,100.00
2023-10-18T14:02:50.066Z,100.00
2023-10-18T14:05:20.940Z,100.00
2023-10-18T14:07:49.859Z,100.00
2023-10-18T14:10:28.934Z,100.00
2023-10-18T14:12:57.515Z,100.00
2023-10-18T14:15:26.679Z,100.00
2023-10-18T14:17:56.815Z,100.00
2023-10-18T14:20:27.607Z,100.00
2023-10-18T14:22:56.996Z,100.00
2023-10-18T14:25:27.282Z,100.00
2023-10-18T14:27:57.574Z,100.00
2023-10-18T14:30:28.676Z,100.00
2023-10-18T14:33:00.617Z,100.00
2023-10-18T14:35:29.550Z,100.00
2023-10-18T14:38:00.434Z,100.00
2023-10-18T14:40:37.940Z,100.00
2023-10-18T14:43:08.589Z,100.00
2023-10-18T14:45:37.211Z,100.00
2023-10-18T14:48:15.394Z,100.00
2023-10-18T14:50:43.918Z,100.00
2023-10-18T14:53:14.668Z,100.00
2023-10-18T14:55:43.066Z,100.00
2023-10-18T14:58:11.463Z,100.00
2023-10-18T15:00:40.672Z,100.00
2023-10-18T15:03:12.317Z,100.00
2023-10-18T15:05:42.182Z,100.00
2023-10-18T15:08:14.207Z,100.00
2023-10-18T15:10:45.995Z,100.00
2023-10-18T15:13:15.075Z,100.00
2023-10-18T15:15:43.438Z,100.00
2023-10-18T15:18:12.569Z,100.00
2023-10-18T15:20:44.830Z,100.00
2023-10-18T15:23:14.826Z,100.00
2023-10-18T15:25:43.706Z,100.00
2023-10-18T15:28:11.986Z,100.00
2023-10-18T15:30:40.440Z,100.00
2023-10-18T15:33:10.650Z,100.00
2023-10-18T15:35:39.062Z,100.00
2023-10-18T15:38:08.801Z,100.00
2023-10-18T15:40:40.081Z,100.00
2023-10-18T15:43:09.297Z,100.00
2023-10-18T15:45:37.566Z,100.00
2023-10-18T15:48:06.852Z,100.00
2023-10-18T15:50:37.175Z,100.00
2023-10-18T15:53:07.346Z,100.00
2023-10-18T15:55:37.637Z,100.00
2023-10-18T15:58:06.369Z,100.00
2023-10-18T16:00:34.699Z,100.00
2023-10-18T16:03:03.175Z,100.00
2023-10-18T16:05:36.697Z,100.00
2023-10-18T16:08:06.227Z,100.00
2023-10-18T16:10:34.568Z,100.00
2023-10-18T16:13:06.121Z,100.00
2023-10-18T16:15:35.847Z,100.00
2023-10-18T16:18:04.980Z,100.00
2023-10-18T16:20:34.053Z,100.00
2023-10-18T16:23:04.687Z,100.00
2023-10-18T16:25:33.824Z,100.00
2023-10-18T16:28:03.689Z,100.00
2023-10-18T16:30:33.346Z,100.00
2023-10-18T16:33:03.465Z,100.00
2023-10-18T16:35:32.601Z,100.00
2023-10-18T16:38:01.699Z,100.00
2023-10-18T16:40:30.149Z,100.00
2023-10-18T16:42:59.967Z,100.00
2023-10-18T16:45:31.291Z,100.00
2023-10-18T16:48:01.596Z,100.00
2023-10-18T16:50:30.487Z,100.00
2023-10-18T16:52:59.826Z,100.00
2023-10-18T16:55:28.209Z,100.00
2023-10-18T16:57:56.442Z,100.00
2023-10-18T17:00:26.094Z,100.00
2023-10-18T17:02:55.864Z,100.00
2023-10-18T17:05:25.340Z,100.00
2023-10-18T17:07:53.865Z,100.00
2023-10-18T17:10:23.085Z,100.00
2023-10-18T17:12:52.421Z,100.00
2023-10-18T17:15:21.633Z,100.00
2023-10-18T17:17:51.148Z,100.00
2023-10-18T17:20:21.634Z,100.00
2023-10-18T17:22:50.036Z,100.00
2023-10-18T17:25:18.447Z,100.00
2023-10-18T17:27:47.666Z,100.00
2023-10-18T17:30:18.302Z,100.00
2023-10-18T17:32:46.747Z,100.00
2023-10-18T17:35:17.773Z,100.00
2023-10-18T17:37:48.640Z,100.00
2023-10-18T17:40:20.383Z,100.00
2023-10-18T17:42:51.291Z,100.00
2023-10-18T17:45:22.685Z,100.00
2023-10-18T17:47:53.089Z,100.00
2023-10-18T17:50:24.968Z,100.00
2023-10-18T17:52:56.909Z,100.00
2023-10-18T17:55:26.122Z,100.00
2023-10-18T17:57:59.478Z,100.00
2023-10-18T18:00:28.901Z,100.00
2023-10-18T18:02:58.975Z,100.00
2023-10-18T18:05:32.547Z,100.00
2023-10-18T18:08:08.068Z,100.00
2023-10-18T18:10:38.987Z,100.00
2023-10-18T18:13:07.832Z,100.00
2023-10-18T18:15:36.930Z,100.00
2023-10-18T18:18:06.248Z,100.00
2023-10-18T18:20:34.795Z,100.00
2023-10-18T18:23:06.444Z,100.00
2023-10-18T18:25:36.023Z,100.00
2023-10-18T18:28:04.750Z,100.00
2023-10-18T18:30:33.679Z,100.00
2023-10-18T18:33:02.198Z,100.00
2023-10-18T18:35:30.587Z,100.00
2023-10-18T18:37:58.936Z,100.00
2023-10-18T18:40:28.740Z,100.00
2023-10-18T18:42:57.053Z,100.00
2023-10-18T18:45:25.567Z,100.00
2023-10-18T18:47:53.954Z,100.00
2023-10-18T18:50:22.340Z,100.00
2023-10-18T18:52:51.747Z,100.00
2023-10-18T18:55:21.143Z,100.00
2023-10-18T18:57:52.450Z,100.00
2023-10-18T19:00:23.509Z,100.00
2023-10-18T19:02:54.556Z,100.00
2023-10-18T19:05:24.201Z,100.00
2023-10-18T19:07:54.113Z,100.00
2023-10-18T19:10:22.617Z,100.00
2023-10-18T19:12:53.272Z,100.00
2023-10-18T19:15:22.891Z,100.00
2023-10-18T19:17:52.632Z,100.00
2023-10-18T19:20:22.392Z,100.00
2023-10-18T19:22:52.375Z,100.00
2023-10-18T19:25:21.778Z,100.00
2023-10-18T19:27:51.801Z,100.00
2023-10-18T19:30:21.655Z,100.00
2023-10-18T19:32:50.507Z,100.00
2023-10-18T19:35:19.007Z,100.00
2023-10-18T19:37:48.998Z,100.00
2023-10-18T19:40:18.450Z,100.00
2023-10-18T19:42:46.792Z,100.00
2023-10-18T19:45:19.296Z,100.00
2023-10-18T19:47:47.896Z,100.00
2023-10-18T19:50:16.504Z,100.00
2023-10-18T19:52:44.874Z,100.00
2023-10-18T19:55:13.251Z,100.00
2023-10-18T19:57:42.070Z,100.00
2023-10-18T20:00:11.731Z,100.00
2023-10-18T20:02:43.704Z,100.00
2023-10-18T20:05:15.555Z,100.00
2023-10-18T20:07:43.992Z,100.00
2023-10-18T20:10:12.805Z,100.00
2023-10-18T20:12:41.129Z,100.00
2023-10-18T20:15:10.790Z,100.00
2023-10-18T20:17:40.689Z,100.00
2023-10-18T20:20:10.192Z,100.00
2023-10-18T20:22:40.939Z,100.00
2023-10-18T20:25:14.260Z,100.00
2023-10-18T20:27:43.145Z,100.00
2023-10-18T20:30:13.110Z,100.00
2023-10-18T20:32:44.348Z,100.00
2023-10-18T20:35:14.777Z,100.00
2023-10-18T20:37:43.843Z,100.00
2023-10-18T20:40:13.520Z,100.00
2023-10-18T20:42:42.427Z,100.00
2023-10-18T20:45:13.561Z,100.00
2023-10-18T20:47:44.661Z,100.00
2023-10-18T20:50:19.122Z,100.00
2023-10-18T20:52:48.142Z,100.00
2023-10-18T20:55:17.727Z,100.00
2023-10-18T20:57:46.081Z,100.00
2023-10-18T21:00:21.607Z,100.00
2023-10-18T21:02:52.133Z,100.00
2023-10-18T21:05:28.800Z,100.00
2023-10-18T21:07:57.628Z,100.00
2023-10-18T21:10:26.529Z,100.00
2023-10-18T21:12:54.931Z,100.00
2023-10-18T21:15:23.959Z,100.00
2023-10-18T21:17:53.683Z,100.00
2023-10-18T21:20:24.016Z,100.00
2023-10-18T21:22:55.142Z,100.00
2023-10-18T21:25:24.113Z,100.00
2023-10-18T21:27:53.037Z,100.00
2023-10-18T21:30:24.027Z,100.00
2023-10-18T21:32:53.915Z,100.00
2023-10-18T21:35:24.060Z,100.00
2023-10-18T21:37:53.535Z,100.00
2023-10-18T21:40:22.603Z,100.00
2023-10-18T21:42:51.046Z,100.00
2023-10-18T21:45:19.598Z,100.00
2023-10-18T21:47:48.118Z,100.00
2023-10-18T21:50:17.816Z,100.00
2023-10-18T21:52:46.214Z,100.00
2023-10-18T21:55:14.522Z,100.00
2023-10-18T21:57:42.902Z,100.00
2023-10-18T22:00:17.692Z,100.00
2023-10-18T22:02:47.486Z,100.00
2023-10-18T22:05:23.470Z,100.00
2023-10-18T22:07:53.848Z,100.00
2023-10-18T22:10:23.530Z,100.00
2023-10-18T22:12:56.817Z,100.00
2023-10-18T22:15:27.261Z,100.00
2023-10-18T22:17:55.724Z,100.00
2023-10-18T22:20:25.552Z,100.00
2023-10-18T22:22:54.042Z,100.00
2023-10-18T22:25:24.175Z,100.00
2023-10-18T22:27:57.071Z,100.00
2023-10-18T22:30:32.043Z,100.00
2023-10-18T22:33:00.650Z,100.00
2023-10-18T22:35:33.101Z,100.00
2023-10-18T22:38:06.282Z,100.00
2023-10-18T22:40:36.960Z,100.00
2023-10-18T22:43:12.441Z,100.00
2023-10-18T22:45:52.807Z,100.00
2023-10-18T22:48:24.443Z,100.00
2023-10-18T22:50:58.893Z,100.00
2023-10-18T22:53:33.256Z,100.00
2023-10-18T22:56:01.724Z,100.00
2023-10-18T22:58:31.166Z,100.00
2023-10-18T23:01:02.377Z,100.00
2023-10-18T23:03:33.458Z,100.00
2023-10-18T23:06:09.289Z,100.00
2023-10-18T23:08:38.475Z,100.00
2023-10-18T23:11:22.128Z,100.00
2023-10-18T23:13:50.822Z,100.00
2023-10-18T23:16:34.600Z,100.00
2023-10-18T23:19:11.129Z,100.00
2023-10-18T23:21:46.321Z,100.00
2023-10-18T23:24:34.840Z,100.00
2023-10-18T23:27:20.686Z,100.00
2023-10-18T23:29:48.981Z,100.00
2023-10-18T23:32:30.751Z,100.00
2023-10-18T23:35:19.998Z,100.00
2023-10-18T23:37:56.754Z,100.00
2023-10-18T23:40:28.009Z,100.00
2023-10-18T23:43:11.724Z,100.00
2023-10-18T23:45:42.332Z,100.00
2023-10-18T23:48:29.240Z,100.00
2023-10-18T23:51:06.961Z,100.00
2023-10-18T23:53:45.189Z,100.00
2023-10-18T23:56:14.029Z,100.00
2023-10-18T23:58:42.847Z,100.00
